Time;durP1;ratioP1;P1;durP2;ratioP2;P2;SDS_P1;SDS_P2;PMS_P1;PMS_P2;Temp;Humidity;BMP_temperature;BMP_pressure;BME280_temperature;BME280_humidity;BME280_pressure;Samples;Min_cycle;Max_cycle;Signal;HPM_P1;HPM_P2
2022/02/09 00:04:42;;;;;;;9.43;3.53;;;8.60;99.90;;;;;;5152122;23;20050;-80
2022/02/09 00:07:13;;;;;;;8.38;3.17;;;8.60;99.90;;;;;;4974767;28;20054;-79
2022/02/09 00:09:43;;;;;;;7.35;3.40;;;8.60;99.90;;;;;;4974786;28;20047;-79
2022/02/09 00:12:17;;;;;;;7.20;3.00;;;8.60;99.90;;;;;;4974754;28;20133;-79
2022/02/09 00:14:54;;;;;;;5.93;2.80;;;8.60;99.90;;;;;;4974724;28;20050;-79
2022/02/09 00:17:39;;;;;;;8.35;3.10;;;8.60;99.90;;;;;;4974759;28;20050;-79
2022/02/09 00:20:40;;;;;;;9.95;3.38;;;8.50;99.90;;;;;;4974869;28;20203;-79
2022/02/09 00:28:58;;;;;;;;;;;8.50;99.90;;;;;;4975190;28;20086;-79
2022/02/09 00:31:59;;;;;;;6.80;2.75;;;8.40;99.90;;;;;;4974328;28;19926;-78
2022/02/09 00:34:51;;;;;;;6.38;3.00;;;8.40;99.90;;;;;;4974599;28;20051;-80
2022/02/09 00:37:39;;;;;;;7.82;3.38;;;8.50;99.90;;;;;;4974280;28;20051;-80
2022/02/09 01:38:15;;;;;;;6.72;2.92;;;8.20;99.90;;;;;;4973788;28;20137;-80
2022/02/09 01:41:56;;;;;;;9.88;3.00;;;8.20;99.90;;;;;;4977638;28;20050;-79
2022/02/09 01:55:27;;;;;;;9.73;3.67;;;8.30;99.90;;;;;;4977326;28;20106;-79
2022/02/09 01:57:54;;;;;;;9.20;3.78;;;8.30;99.90;;;;;;4979194;28;20569;-79
2022/02/09 02:00:22;;;;;;;10.27;3.35;;;8.30;99.90;;;;;;4996497;28;20133;-79
2022/02/09 02:02:49;;;;;;;7.50;3.30;;;8.20;99.90;;;;;;4994365;28;20133;-79
2022/02/09 02:05:17;;;;;;;8.10;3.00;;;8.20;99.90;;;;;;4977292;28;20054;-79
2022/02/09 02:07:49;;;;;;;8.85;3.00;;;8.20;99.90;;;;;;4976841;28;20055;-80
2022/02/09 02:10:21;;;;;;;9.05;3.15;;;8.20;99.80;;;;;;4958516;28;20484;-80
2022/02/09 02:13:03;;;;;;;8.43;2.97;;;8.20;99.70;;;;;;4957773;29;20054;-79
2022/02/09 02:16:05;;;;;;;8.07;3.15;;;8.20;99.70;;;;;;4957745;29;20047;-80
2022/02/09 02:18:34;;;;;;;7.65;3.08;;;8.20;99.40;;;;;;4957651;29;20051;-81
2022/02/09 02:21:16;;;;;;;8.23;3.38;;;8.30;99.40;;;;;;4957540;29;20049;-80
2022/02/09 02:24:06;;;;;;;6.75;2.88;;;8.30;99.30;;;;;;4957649;29;20058;-80
2022/02/09 02:26:48;;;;;;;9.18;3.28;;;8.30;99.60;;;;;;4957776;29;20054;-79
2022/02/09 02:29:43;;;;;;;8.93;3.10;;;8.30;99.30;;;;;;4957518;29;20051;-80
2022/02/09 02:57:23;;;;;;;10.70;4.30;;;8.20;98.80;;;;;;4976195;28;20467;-79
2022/02/09 03:08:33;;;;;;;9.02;3.00;;;8.10;98.60;;;;;;4975964;28;20061;-79
2022/02/09 03:13:58;;;;;;;8.30;3.47;;;8.10;98.50;;;;;;4920875;28;20045;-79
2022/02/09 03:16:35;;;;;;;7.35;3.28;;;8.10;98.40;;;;;;4975713;28;20058;-79
2022/02/09 03:19:25;;;;;;;8.57;3.47;;;8.10;98.40;;;;;;4975845;28;20439;-79
2022/02/09 03:22:10;;;;;;;10.88;3.88;;;8.10;98.40;;;;;;4964247;28;20493;-79
2022/02/09 03:24:54;;;;;;;9.25;3.55;;;8.00;98.60;;;;;;4975687;28;20043;-78
2022/02/09 03:27:33;;;;;;;7.28;3.50;;;8.00;98.40;;;;;;4975582;28;20057;-79
2022/02/09 03:44:07;;;;;;;7.95;3.30;;;7.90;98.50;;;;;;4975383;28;20077;-78
2022/02/09 03:47:11;;;;;;;6.72;3.30;;;7.80;98.40;;;;;;4975125;28;20057;-78
2022/02/09 03:49:51;;;;;;;7.95;3.55;;;7.90;98.60;;;;;;4974806;28;20456;-78
2022/02/09 03:52:44;;;;;;;9.25;3.40;;;7.90;98.60;;;;;;4975207;28;20050;-79
2022/02/09 03:55:16;;;;;;;8.73;3.67;;;7.90;98.70;;;;;;4974802;28;20072;-79
2022/02/09 03:57:45;;;;;;;8.27;3.25;;;7.90;98.70;;;;;;4974003;28;20047;-79
2022/02/09 04:00:14;;;;;;;6.43;3.38;;;7.90;98.90;;;;;;4955722;29;20055;-79
2022/02/09 04:02:46;;;;;;;9.10;3.78;;;7.90;98.70;;;;;;4955093;28;20480;-78
2022/02/09 04:05:14;;;;;;;7.35;3.70;;;7.90;98.60;;;;;;4962963;28;20137;-78
2022/02/09 04:07:41;;;;;;;8.23;3.83;;;7.90;98.50;;;;;;4974809;28;20047;-79
2022/02/09 04:10:13;;;;;;;10.05;3.45;;;7.90;98.70;;;;;;4974625;28;20138;-79
2022/02/09 04:12:48;;;;;;;7.93;3.60;;;7.90;98.40;;;;;;4974826;28;20102;-79
2022/02/09 04:15:24;;;;;;;9.23;3.40;;;7.80;98.40;;;;;;4974684;28;20042;-79
2022/02/09 04:18:07;;;;;;;8.52;3.35;;;7.90;98.40;;;;;;4974421;28;20085;-78
2022/02/09 04:37:02;;;;;;;9.50;3.83;;;7.80;98.80;;;;;;4974608;28;20058;-79
2022/02/09 04:39:34;;;;;;;8.85;3.92;;;7.70;98.90;;;;;;4974484;28;20125;-79
2022/02/09 04:44:59;;;;;;;9.10;3.53;;;7.70;98.70;;;;;;4971509;28;20059;-77
2022/02/09 04:47:33;;;;;;;10.13;3.63;;;7.70;98.80;;;;;;4974242;28;20057;-77
2022/02/09 04:50:14;;;;;;;8.98;3.88;;;7.70;98.60;;;;;;4974256;28;20084;-79
2022/02/09 04:58:24;;;;;;;8.48;3.90;;;7.50;98.90;;;;;;4974226;28;20046;-80
2022/02/09 05:00:59;;;;;;;9.25;3.50;;;7.40;98.60;;;;;;4974390;28;20050;-81
2022/02/09 05:22:56;;;;;;;8.48;4.10;;;7.20;99.20;;;;;;4959482;29;20110;-84
2022/02/09 05:28:10;;;;;;;8.18;3.20;;;7.20;99.30;;;;;;4943684;29;19970;-81
2022/02/09 05:30:38;;;;;;;11.85;4.40;;;7.20;99.10;;;;;;4958483;29;20043;-79
2022/02/09 05:33:05;;;;;;;9.07;3.95;;;7.20;99.00;;;;;;4957449;29;20047;-79
2022/02/09 05:35:32;;;;;;;7.68;3.50;;;7.10;99.00;;;;;;4957733;29;20130;-79
2022/02/09 05:38:01;;;;;;;9.48;3.80;;;7.10;99.10;;;;;;4958354;29;20143;-79
2022/02/09 05:40:29;;;;;;;10.07;4.00;;;7.00;99.20;;;;;;4958376;29;20139;-79
2022/02/09 05:42:57;;;;;;;9.77;4.05;;;7.00;99.40;;;;;;4958332;29;20082;-79
2022/02/09 05:45:30;;;;;;;8.88;3.80;;;6.90;99.50;;;;;;4958615;29;20434;-80
2022/02/09 05:48:47;;;;;;;8.82;3.95;;;6.90;99.60;;;;;;4958010;29;20043;-79
2022/02/09 05:51:15;;;;;;;7.50;3.50;;;6.80;99.70;;;;;;4957831;29;20043;-79
2022/02/09 05:53:58;;;;;;;8.20;3.72;;;6.70;99.80;;;;;;4958115;29;20141;-79
2022/02/09 05:56:35;;;;;;;7.82;3.55;;;6.70;99.90;;;;;;4957826;29;20504;-79
2022/02/09 05:59:15;;;;;;;9.05;4.13;;;6.60;99.90;;;;;;4957890;29;20105;-79
2022/02/09 06:01:43;;;;;;;9.00;3.70;;;6.60;99.90;;;;;;4957745;29;20078;-79
2022/02/09 06:04:11;;;;;;;8.90;3.75;;;6.60;99.90;;;;;;4957839;29;20043;-79
2022/02/09 06:06:38;;;;;;;9.63;3.58;;;6.50;99.90;;;;;;4957730;29;20051;-79
2022/02/09 06:09:08;;;;;;;9.20;3.88;;;6.50;99.90;;;;;;4957812;29;20473;-80
2022/02/09 06:11:42;;;;;;;8.38;3.75;;;6.50;99.90;;;;;;4957875;29;20058;-79
2022/02/09 06:14:37;;;;;;;10.13;4.10;;;6.40;99.90;;;;;;4957722;29;20055;-79
2022/02/09 06:19:53;;;;;;;9.00;3.72;;;6.30;99.90;;;;;;4950726;29;20063;-79
2022/02/09 06:22:21;;;;;;;10.18;4.47;;;6.30;99.90;;;;;;4957622;29;20137;-79
2022/02/09 06:24:50;;;;;;;9.70;3.80;;;6.20;99.90;;;;;;4957430;28;20047;-80
2022/02/09 06:27:17;;;;;;;7.70;3.90;;;6.20;99.90;;;;;;4957551;29;20043;-79
2022/02/09 06:29:47;;;;;;;7.22;3.67;;;6.10;99.90;;;;;;4957290;29;20129;-79
2022/02/09 06:32:15;;;;;;;8.85;3.88;;;6.10;99.90;;;;;;4957330;29;20047;-79
2022/02/09 06:34:43;;;;;;;9.27;3.90;;;6.00;99.90;;;;;;4957293;29;20142;-80
2022/02/09 06:37:16;;;;;;;8.55;3.80;;;5.90;99.90;;;;;;4957168;29;20079;-80
2022/02/09 06:39:47;;;;;;;7.28;3.70;;;6.00;99.90;;;;;;4956969;29;20062;-80
2022/02/09 06:42:22;;;;;;;8.52;3.70;;;5.90;99.90;;;;;;4957177;29;20058;-79
2022/02/09 06:44:49;;;;;;;7.78;3.80;;;5.80;99.90;;;;;;4957120;29;20047;-80
2022/02/09 06:47:21;;;;;;;11.90;4.10;;;5.80;99.90;;;;;;4957044;29;20114;-80
2022/02/09 06:49:56;;;;;;;8.77;4.35;;;5.80;99.90;;;;;;4957080;29;20461;-80
2022/02/09 06:52:23;;;;;;;7.40;3.30;;;5.80;99.90;;;;;;4956845;29;20086;-79
2022/02/09 06:55:08;;;;;;;7.15;3.40;;;5.80;99.90;;;;;;4956837;29;20131;-79
2022/02/09 06:57:58;;;;;;;8.68;3.58;;;5.70;99.90;;;;;;4956994;29;20568;-81
2022/02/09 07:00:26;;;;;;;9.27;3.70;;;5.80;99.90;;;;;;4956885;29;20105;-81
2022/02/09 07:02:53;;;;;;;7.22;3.28;;;5.80;99.90;;;;;;4956665;29;20134;-80
2022/02/09 07:05:21;;;;;;;8.82;3.63;;;5.80;99.90;;;;;;4956764;29;20075;-81
2022/02/09 07:07:48;;;;;;;8.90;3.47;;;5.80;99.90;;;;;;4957084;29;20062;-80
2022/02/09 07:10:15;;;;;;;7.07;3.38;;;5.80;99.90;;;;;;4956633;29;20058;-81
2022/02/09 07:12:45;;;;;;;7.25;3.35;;;5.80;99.90;;;;;;4956730;29;20471;-80
2022/02/09 07:15:16;;;;;;;9.77;3.78;;;5.80;99.90;;;;;;4956650;29;20053;-79
2022/02/09 07:17:44;;;;;;;8.77;4.05;;;5.80;99.90;;;;;;4956364;29;20330;-79
2022/02/09 07:20:18;;;;;;;9.27;3.63;;;5.70;99.70;;;;;;4956331;29;20489;-79
2022/02/09 07:22:47;;;;;;;6.63;3.63;;;5.60;99.90;;;;;;4956584;29;20557;-81
2022/02/09 07:25:17;;;;;;;6.93;3.50;;;5.60;99.90;;;;;;4956394;29;20047;-81
2022/02/09 07:27:50;;;;;;;9.25;3.78;;;5.60;99.90;;;;;;4956344;29;20051;-80
2022/02/09 07:30:22;;;;;;;8.13;4.00;;;5.60;99.90;;;;;;4956091;29;20065;-81
2022/02/09 07:32:51;;;;;;;7.53;3.75;;;5.60;99.90;;;;;;4949255;29;20143;-79
2022/02/09 07:35:19;;;;;;;8.85;3.67;;;5.50;99.90;;;;;;4956576;29;20051;-79
2022/02/09 07:37:46;;;;;;;7.90;3.72;;;5.50;99.90;;;;;;4955778;28;20126;-79
2022/02/09 07:40:14;;;;;;;9.15;3.70;;;5.50;99.90;;;;;;4955986;29;20058;-79
2022/02/09 07:42:46;;;;;;;9.35;3.65;;;5.40;99.90;;;;;;4956159;29;20134;-79
2022/02/09 07:48:14;;;;;;;8.48;3.45;;;5.40;99.90;;;;;;4945593;29;20103;-80
2022/02/09 07:50:44;;;;;;;11.00;4.00;;;5.50;99.90;;;;;;4956008;29;20055;-79
2022/02/09 07:53:14;;;;;;;6.75;3.65;;;5.50;99.90;;;;;;4955745;29;20051;-79
2022/02/09 07:55:41;;;;;;;9.05;3.80;;;5.50;99.90;;;;;;4956950;29;20054;-79
2022/02/09 07:58:09;;;;;;;10.50;4.00;;;5.50;99.90;;;;;;4955964;29;20138;-79
2022/02/09 08:00:38;;;;;;;9.23;3.45;;;5.50;99.90;;;;;;4955728;29;20142;-79
2022/02/09 08:03:05;;;;;;;7.13;3.28;;;5.50;99.90;;;;;;4955801;29;20437;-79
2022/02/09 08:05:33;;;;;;;7.60;3.35;;;5.50;99.90;;;;;;4955745;29;20043;-79
2022/02/09 08:08:00;;;;;;;7.30;3.80;;;5.60;99.90;;;;;;4955686;29;20150;-81
2022/02/09 08:10:37;;;;;;;8.02;3.65;;;5.60;99.90;;;;;;4955649;29;20138;-80
2022/02/09 08:24:45;;;;;;;9.48;4.05;;;5.80;99.90;;;;;;4953735;29;20402;-81
2022/02/09 08:27:23;;;;;;;7.93;3.80;;;5.80;99.90;;;;;;4955135;29;20095;-81
2022/02/09 08:30:03;;;;;;;8.55;4.10;;;5.80;99.90;;;;;;4955465;29;20047;-80
2022/02/09 08:32:41;;;;;;;9.77;4.15;;;5.80;99.90;;;;;;4955189;29;20051;-80
2022/02/09 08:35:10;;;;;;;8.77;4.50;;;5.70;99.90;;;;;;4955450;29;20049;-80
2022/02/09 08:37:37;;;;;;;9.48;4.05;;;5.70;99.90;;;;;;4955218;29;20158;-80
2022/02/09 08:40:06;;;;;;;8.90;4.28;;;5.70;99.90;;;;;;4955114;29;20098;-80
2022/02/09 08:42:37;;;;;;;8.40;4.55;;;5.80;99.90;;;;;;4951553;29;20134;-81
2022/02/09 08:45:06;;;;;;;11.77;4.85;;;5.80;99.90;;;;;;4917075;29;20079;-80
2022/02/09 08:47:35;;;;;;;9.98;4.43;;;5.80;99.90;;;;;;4916705;29;20048;-80
2022/02/09 08:50:06;;;;;;;7.63;3.95;;;5.80;99.90;;;;;;4916387;29;20131;-80
2022/02/09 08:52:33;;;;;;;11.15;4.45;;;5.90;99.90;;;;;;4916933;29;20099;-80
2022/02/09 08:55:00;;;;;;;11.63;4.72;;;5.90;99.90;;;;;;4916968;29;20052;-80
2022/02/09 08:57:28;;;;;;;8.20;4.40;;;5.90;99.90;;;;;;4916939;29;20136;-79
2022/02/09 08:59:59;;;;;;;8.77;4.38;;;6.00;99.90;;;;;;4916715;29;20052;-80
2022/02/09 09:02:33;;;;;;;9.30;4.60;;;6.10;99.90;;;;;;4917087;29;20147;-80
2022/02/09 09:05:12;;;;;;;9.10;4.77;;;6.10;99.90;;;;;;4901322;29;20074;-80
2022/02/09 09:07:40;;;;;;;9.25;4.00;;;6.10;99.90;;;;;;4916830;29;20140;-80
2022/02/09 09:10:15;;;;;;;9.27;4.60;;;6.20;99.90;;;;;;4916640;29;20108;-80
2022/02/09 10:14:06;;;;;;;8.40;4.00;;;7.40;99.90;;;;;;4919626;29;20052;-80
2022/02/09 10:33:54;;;;;;;10.95;4.00;;;8.00;99.90;;;;;;4916514;29;20052;-80
2022/02/09 10:36:22;;;;;;;11.20;4.32;;;8.10;99.90;;;;;;4918933;29;20078;-80
2022/02/09 10:38:52;;;;;;;8.25;4.07;;;8.20;99.90;;;;;;4919235;29;20142;-79
2022/02/09 10:41:25;;;;;;;7.65;3.72;;;8.30;99.90;;;;;;4918763;29;20244;-80
2022/02/09 10:44:05;;;;;;;7.35;3.80;;;8.30;99.90;;;;;;4918916;29;20553;-79
2022/02/09 10:46:34;;;;;;;6.20;3.42;;;8.30;99.90;;;;;;4918741;29;20486;-81
2022/02/09 10:49:02;;;;;;;7.60;3.50;;;8.40;99.90;;;;;;4918913;29;20044;-80
2022/02/09 10:51:36;;;;;;;9.45;3.55;;;8.50;99.90;;;;;;4918339;29;20086;-80
2022/02/09 10:54:11;;;;;;;9.00;3.20;;;8.60;99.60;;;;;;4918900;29;20048;-79
2022/02/09 10:56:40;;;;;;;;;;;8.70;99.60;;;;;;4919193;29;20052;-80
2022/02/09 10:59:11;;;;;;;9.27;3.85;;;8.70;99.50;;;;;;4918984;29;19930;-80
2022/02/09 11:01:39;;;;;;;9.10;3.20;;;8.80;99.40;;;;;;4918564;29;20080;-79
2022/02/09 11:04:08;;;;;;;8.07;3.05;;;8.90;99.40;;;;;;4918844;29;20104;-79
2022/02/09 11:06:39;;;;;;;6.35;3.22;;;9.00;99.40;;;;;;4917669;29;20050;-80
2022/02/09 11:09:09;;;;;;;7.63;3.60;;;9.10;99.50;;;;;;4932122;29;20067;-79
2022/02/09 11:11:39;;;;;;;6.82;2.75;;;9.10;99.20;;;;;;4920657;29;20048;-79
2022/02/09 11:14:11;;;;;;;9.90;3.15;;;9.20;99.00;;;;;;4922197;29;20095;-80
2022/02/09 11:16:39;;;;;;;8.30;2.90;;;9.30;98.90;;;;;;4937342;29;20052;-80
2022/02/09 11:19:08;;;;;;;6.68;2.55;;;9.40;98.90;;;;;;4937009;29;20134;-80
2022/02/09 11:21:37;;;;;;;7.28;2.53;;;9.40;98.80;;;;;;4937536;29;20118;-80
2022/02/09 11:24:18;;;;;;;5.82;2.28;;;9.50;98.70;;;;;;4933469;29;20044;-79
2022/02/09 11:26:53;;;;;;;5.75;1.80;;;9.60;98.30;;;;;;4935120;29;20082;-80
2022/02/09 11:29:37;;;;;;;4.47;1.98;;;9.70;98.30;;;;;;4956214;29;20066;-79
2022/02/09 11:32:25;;;;;;;;;;;9.80;98.60;;;;;;4954485;29;20051;-80
2022/02/09 11:35:28;;;;;;;4.65;1.90;;;9.90;98.10;;;;;;4956111;29;20471;-80
2022/02/09 11:40:46;;;;;;;5.03;1.83;;;10.00;97.00;;;;;;4951704;28;20408;-80
2022/02/09 11:44:18;;;;;;;4.10;1.50;;;10.10;97.30;;;;;;4955974;29;20051;-79
2022/02/09 11:47:19;;;;;;;4.38;1.55;;;10.20;97.10;;;;;;4954338;29;20055;-79
2022/02/09 11:52:54;;;;;;;3.35;1.35;;;10.40;96.70;;;;;;4956014;29;20134;-80
2022/02/09 12:10:25;;;;;;;5.72;1.33;;;11.00;95.30;;;;;;4942150;29;20532;-80
2022/02/09 12:13:07;;;;;;;;;;;11.10;95.30;;;;;;4955450;29;20374;-79
2022/02/09 12:16:31;;;;;;;3.03;1.20;;;11.20;95.10;;;;;;4955485;29;19922;-80
2022/02/09 12:19:02;;;;;;;3.63;1.35;;;11.40;95.00;;;;;;4955550;29;20070;-80
2022/02/09 12:21:55;;;;;;;2.25;1.00;;;11.60;95.00;;;;;;4955361;29;20051;-80
2022/02/09 12:24:28;;;;;;;3.85;1.23;;;11.70;94.60;;;;;;4954427;28;20548;-80
2022/02/09 12:27:02;;;;;;;3.33;1.40;;;11.90;93.90;;;;;;4955315;29;20047;-79
2022/02/09 12:29:32;;;;;;;3.15;1.20;;;12.00;93.40;;;;;;4955353;29;20079;-79
2022/02/09 12:31:59;;;;;;;3.38;1.20;;;12.10;93.50;;;;;;4955315;29;20464;-79
2022/02/09 12:34:29;;;;;;;2.90;1.17;;;12.20;92.90;;;;;;4955190;29;20133;-79
2022/02/09 12:36:58;;;;;;;2.47;1.00;;;12.40;92.40;;;;;;4953466;29;20071;-79
2022/02/09 12:39:26;;;;;;;2.72;0.98;;;12.50;92.00;;;;;;4953590;29;20073;-79
2022/02/09 12:41:59;;;;;;;3.42;1.00;;;12.60;91.80;;;;;;4955030;29;20078;-80
2022/02/09 12:44:26;;;;;;;3.05;1.08;;;12.80;91.30;;;;;;4955107;29;20540;-79
2022/02/09 12:46:53;;;;;;;3.10;1.05;;;13.00;90.80;;;;;;4955157;29;20069;-79
2022/02/09 12:49:23;;;;;;;2.88;1.25;;;13.10;90.70;;;;;;4954577;29;20508;-79
2022/02/09 12:51:51;;;;;;;2.33;0.85;;;13.20;90.20;;;;;;4954799;29;20057;-79
2022/02/09 12:54:20;;;;;;;3.08;1.10;;;13.30;89.00;;;;;;4955144;29;20055;-79
2022/02/09 12:56:51;;;;;;;3.30;1.20;;;13.40;88.60;;;;;;4955262;29;20410;-79
2022/02/09 12:59:22;;;;;;;2.92;1.00;;;13.50;87.40;;;;;;4954877;29;20047;-78
2022/02/09 13:01:52;;;;;;;2.92;0.98;;;13.50;87.90;;;;;;4954790;29;20047;-78
2022/02/09 13:04:37;;;;;;;2.75;0.93;;;13.70;85.80;;;;;;4952711;29;20135;-78
2022/02/09 13:07:08;;;;;;;2.45;1.00;;;13.80;83.30;;;;;;4954767;29;20074;-78
2022/02/09 13:09:38;;;;;;;3.17;1.10;;;13.90;83.30;;;;;;4954519;29;20055;-77
2022/02/09 13:12:06;;;;;;;2.70;1.00;;;14.10;82.50;;;;;;4955053;29;20047;-78
2022/02/09 13:14:37;;;;;;;5.55;1.23;;;14.30;81.00;;;;;;4954630;29;20512;-78
2022/02/09 13:17:27;;;;;;;5.00;1.00;;;14.40;79.30;;;;;;4954154;29;20059;-79
2022/02/09 13:52:13;;;;;;;2.30;0.90;;;19.30;58.00;;;;;;4958066;29;20098;-80
2022/02/09 14:11:29;;;;;;;3.83;1.50;;;34.50;32.30;;;;;;4943419;29;20054;-79
2022/02/09 14:14:11;;;;;;;2.45;0.90;;;35.10;32.50;;;;;;4938445;29;20409;-80
2022/02/09 14:47:46;;;;;;;2.83;1.20;;;;;;;;;;4937412;29;20099;-80
2022/02/09 14:53:09;;;;;;;3.90;1.38;;;;;;;;;;4937045;29;20111;-79
2022/02/09 14:55:55;;;;;;;3.17;1.30;;;;;;;;;;4937714;29;20552;-79
2022/02/09 14:58:26;;;;;;;2.92;1.10;;;;;;;;;;4937920;29;20052;-80
2022/02/09 15:01:00;;;;;;;2.67;1.10;;;;;;;;;;4937313;29;20085;-80
2022/02/09 15:03:47;;;;;;;4.20;2.03;;;;;;;;;;4937636;29;20054;-81
2022/02/09 15:09:06;;;;;;;2.92;1.20;;;;;;;;;;4929929;29;20122;-82
2022/02/09 15:11:38;;;;;;;4.72;1.40;;;;;;;;;;4937650;29;20417;-81
2022/02/09 15:14:12;;;;;;;3.60;1.20;;;;;;;;;;4936962;29;20494;-81
2022/02/09 15:16:49;;;;;;;3.28;1.30;;;;;;;;;;4937211;29;20043;-80
2022/02/09 15:19:25;;;;;;;3.78;1.40;;;;;;;;;;4937585;29;20111;-81
2022/02/09 15:24:38;;;;;;;3.10;1.05;;;40.70;28.10;;;;;;4931971;29;20103;-80
2022/02/09 15:27:06;;;;;;;3.72;1.30;;;40.60;28.00;;;;;;4936778;29;20474;-81
2022/02/09 15:29:37;;;;;;;2.95;1.30;;;40.50;28.10;;;;;;4937071;29;20043;-80
2022/02/09 15:32:13;;;;;;;3.88;1.25;;;40.20;28.10;;;;;;4926249;29;20052;-79
2022/02/09 15:34:44;;;;;;;2.90;1.30;;;39.80;28.10;;;;;;4936527;29;20051;-81
2022/02/09 15:37:18;;;;;;;4.30;1.42;;;39.40;28.20;;;;;;4935687;29;20052;-82
2022/02/09 15:39:48;;;;;;;;;;;38.80;28.50;;;;;;4929474;29;20560;-81
2022/02/09 16:08:15;;;;;;;3.80;1.40;;;35.50;29.40;;;;;;4945930;29;20050;-78
2022/02/09 16:10:50;;;;;;;3.33;1.30;;;35.00;29.50;;;;;;4955256;29;20403;-80
2022/02/09 16:24:26;;;;;;;;;;;30.80;31.60;;;;;;4936692;29;20489;-80
2022/02/09 16:38:09;;;;;;;4.07;1.40;;;23.70;34.50;;;;;;4936242;29;20098;-81
2022/02/09 16:46:15;;;;;;;3.05;1.30;;;20.80;37.80;;;;;;4896545;29;20047;-81
2022/02/09 16:48:48;;;;;;;3.35;1.20;;;20.10;38.80;;;;;;4935851;29;20048;-81
2022/02/09 16:51:18;;;;;;;3.33;1.10;;;19.40;39.70;;;;;;4935906;29;20481;-80
2022/02/09 16:53:53;;;;;;;2.80;1.30;;;18.80;40.50;;;;;;4935520;29;20044;-81
2022/02/09 16:56:37;;;;;;;2.65;1.17;;;18.30;41.20;;;;;;4935914;29;20055;-81
2022/02/09 17:15:44;;;;;;;4.60;1.88;;;15.60;46.40;;;;;;4939343;29;20070;-80
2022/02/09 17:20:56;;;;;;;5.60;1.52;;;15.10;46.70;;;;;;4956517;29;20181;-82
2022/02/09 17:23:23;;;;;;;3.83;1.60;;;14.90;47.10;;;;;;4956635;29;20047;-81
2022/02/09 17:25:50;;;;;;;3.70;1.85;;;14.70;47.50;;;;;;4957964;29;20401;-83
2022/02/09 17:28:18;;;;;;;4.72;1.73;;;14.60;47.80;;;;;;4959016;29;20055;-79
2022/02/09 17:31:10;;;;;;;5.00;1.60;;;14.50;48.10;;;;;;4958664;29;20052;-79
2022/02/09 17:34:00;;;;;;;5.15;1.60;;;14.30;48.60;;;;;;4958271;29;20047;-80
2022/02/09 17:36:41;;;;;;;4.07;1.65;;;14.10;48.90;;;;;;4949072;29;20048;-79
2022/02/09 17:39:23;;;;;;;6.35;1.77;;;13.90;49.30;;;;;;4938791;29;20051;-78
2022/02/09 17:55:55;;;;;;;3.50;1.48;;;12.70;54.00;;;;;;4958163;28;20062;-79
2022/02/09 17:58:27;;;;;;;3.55;1.50;;;12.50;54.00;;;;;;4957839;29;20061;-79
2022/02/09 18:00:55;;;;;;;4.30;1.70;;;12.40;54.40;;;;;;4956849;28;20385;-79
2022/02/09 18:03:24;;;;;;;3.78;1.40;;;12.40;54.70;;;;;;4953333;28;20447;-79
2022/02/09 18:05:53;;;;;;;4.03;1.75;;;12.30;55.00;;;;;;4957675;29;20160;-78
2022/02/09 18:08:26;;;;;;;4.00;1.80;;;12.30;55.00;;;;;;4953853;29;20043;-78
2022/02/09 18:11:05;;;;;;;4.18;1.60;;;12.30;55.10;;;;;;4952103;28;20062;-79
2022/02/09 18:30:29;;;;;;;5.75;2.08;;;11.60;57.20;;;;;;4873407;29;20504;-79
2022/02/09 18:33:24;;;;;;;4.65;2.00;;;11.60;58.00;;;;;;4939824;29;20047;-79
2022/02/09 18:44:22;;;;;;;4.35;1.98;;;11.20;58.90;;;;;;4930752;29;20043;-78
2022/02/09 18:47:05;;;;;;;4.80;2.03;;;11.20;60.00;;;;;;4938058;29;20052;-78
2022/02/09 19:03:29;;;;;;;4.38;2.13;;;10.80;60.70;;;;;;4946394;28;20043;-78
2022/02/09 19:06:01;;;;;;;4.60;1.95;;;10.80;61.30;;;;;;4956722;29;20122;-79
2022/02/09 19:08:50;;;;;;;6.88;2.05;;;10.70;61.40;;;;;;4956293;29;20134;-78
2022/02/09 19:14:10;;;;;;;6.00;2.90;;;10.60;62.20;;;;;;4956438;29;20074;-78
2022/02/09 19:16:49;;;;;;;4.97;2.67;;;10.60;62.50;;;;;;4956404;29;20548;-78
2022/02/09 19:19:49;;;;;;;5.22;2.45;;;10.50;62.80;;;;;;4954233;29;20098;-78
2022/02/09 19:30:45;;;;;;;5.95;2.42;;;10.30;64.20;;;;;;4948710;29;20109;-79
2022/02/09 19:33:29;;;;;;;5.25;2.35;;;10.30;64.60;;;;;;4949544;29;20066;-81
2022/02/09 19:47:05;;;;;;;6.97;4.10;;;10.30;67.00;;;;;;4937504;29;20435;-81
2022/02/09 19:49:54;;;;;;;5.25;3.20;;;10.30;67.70;;;;;;4936618;29;20089;-81
2022/02/09 19:52:34;;;;;;;6.43;2.67;;;10.30;67.40;;;;;;4936961;29;20410;-81
2022/02/09 19:55:20;;;;;;;6.28;3.10;;;10.30;67.80;;;;;;4938515;29;20413;-80
2022/02/09 19:57:51;;;;;;;6.80;2.97;;;10.30;68.00;;;;;;4948735;29;20079;-82
2022/02/09 20:00:21;;;;;;;8.63;3.33;;;10.30;68.50;;;;;;4917679;29;20044;-82
2022/02/09 20:02:48;;;;;;;6.00;2.97;;;10.30;68.80;;;;;;4936698;29;20074;-81
2022/02/09 20:05:17;;;;;;;5.70;3.08;;;10.30;69.10;;;;;;4936346;29;20082;-80
2022/02/09 20:07:44;;;;;;;5.53;2.80;;;10.30;69.60;;;;;;4937049;29;20047;-82
2022/02/09 20:10:12;;;;;;;6.57;2.92;;;10.20;70.10;;;;;;4936643;29;20086;-82
2022/02/09 20:12:40;;;;;;;5.95;2.83;;;10.20;70.50;;;;;;4936762;29;20074;-82
2022/02/09 20:15:12;;;;;;;6.43;3.13;;;10.20;71.10;;;;;;4936274;29;20054;-82
2022/02/09 20:17:40;;;;;;;6.43;2.83;;;10.10;71.40;;;;;;4942990;29;20059;-84
2022/02/09 20:20:14;;;;;;;6.85;3.22;;;10.10;72.00;;;;;;4955497;29;20047;-82
2022/02/09 20:22:43;;;;;;;7.10;3.72;;;10.10;72.50;;;;;;4955958;29;20054;-82
2022/02/09 20:25:12;;;;;;;8.75;4.43;;;10.00;73.00;;;;;;4954529;29;20121;-81
2022/02/09 20:27:39;;;;;;;8.40;3.85;;;10.00;73.40;;;;;;4953643;29;20055;-81
2022/02/09 20:30:11;;;;;;;7.72;3.80;;;9.90;74.00;;;;;;4955355;29;20489;-80
2022/02/09 20:32:44;;;;;;;7.88;3.95;;;9.80;74.70;;;;;;4948082;29;20055;-81
2022/02/09 20:35:14;;;;;;;10.02;4.50;;;9.70;75.90;;;;;;4954687;29;20126;-81
2022/02/09 20:37:46;;;;;;;9.20;4.70;;;9.60;77.30;;;;;;4955625;29;20051;-82
2022/02/09 20:40:19;;;;;;;8.88;4.50;;;9.50;77.60;;;;;;4954901;28;20555;-81
2022/02/09 20:42:52;;;;;;;8.00;4.25;;;9.40;78.70;;;;;;4955579;29;20055;-82
2022/02/09 20:45:27;;;;;;;7.00;3.70;;;9.30;80.30;;;;;;4954891;28;20047;-80
2022/02/09 20:48:00;;;;;;;6.47;3.38;;;9.20;81.60;;;;;;4955293;29;20051;-80
2022/02/09 20:50:27;;;;;;;7.45;3.38;;;9.10;83.30;;;;;;4955269;29;20146;-80
2022/02/09 20:52:54;;;;;;;6.97;3.20;;;8.90;84.60;;;;;;4952302;29;20122;-79
2022/02/09 20:55:23;;;;;;;6.55;3.42;;;8.90;85.60;;;;;;4942031;29;20461;-80
2022/02/09 20:57:50;;;;;;;8.07;3.22;;;8.80;86.30;;;;;;4954887;29;20054;-81
2022/02/09 21:00:28;;;;;;;8.35;3.65;;;8.70;86.90;;;;;;4953750;29;20078;-81
2022/02/09 21:03:03;;;;;;;10.95;4.55;;;8.60;88.60;;;;;;4954953;29;20057;-80
2022/02/09 21:05:40;;;;;;;;;;;8.40;90.60;;;;;;4955186;29;20489;-80
2022/02/09 21:08:18;;;;;;;9.50;4.93;;;8.30;91.10;;;;;;4954758;29;19922;-80
2022/02/09 21:10:52;;;;;;;11.75;5.97;;;8.20;91.30;;;;;;4954984;29;20135;-80
2022/02/09 21:13:29;;;;;;;14.23;6.60;;;8.10;91.70;;;;;;4955027;29;20397;-80
2022/02/09 21:16:12;;;;;;;12.95;6.57;;;8.00;92.40;;;;;;4954712;29;20138;-78
2022/02/09 21:19:05;;;;;;;13.82;6.50;;;7.80;92.80;;;;;;4954384;29;20142;-80
2022/02/09 21:21:59;;;;;;;13.90;6.68;;;7.70;93.20;;;;;;4954276;29;20063;-79
2022/02/09 21:44:45;;;;;;;10.60;5.88;;;6.80;95.50;;;;;;4883475;29;20120;-79
2022/02/09 21:53:03;;;;;;;11.48;5.78;;;6.80;95.80;;;;;;4899918;29;20056;-79
2022/02/09 21:55:42;;;;;;;10.25;6.05;;;6.70;95.80;;;;;;4954228;28;20047;-79
2022/02/09 21:58:20;;;;;;;10.32;5.47;;;6.70;95.80;;;;;;4957682;29;20043;-80
2022/02/09 22:01:13;;;;;;;9.57;4.95;;;6.70;95.90;;;;;;4957771;29;20047;-79
2022/02/09 22:06:50;;;;;;;;;;;6.60;95.70;;;;;;4958321;29;20511;-79
2022/02/09 22:20:23;;;;;;;9.73;4.78;;;6.50;96.10;;;;;;4947538;29;19946;-80
2022/02/09 22:22:59;;;;;;;8.23;4.25;;;6.60;95.90;;;;;;4950416;29;20432;-81
2022/02/09 22:28:17;;;;;;;9.73;4.68;;;6.50;96.00;;;;;;4957661;29;20039;-80
2022/02/09 22:50:11;;;;;;;8.32;4.35;;;6.30;95.90;;;;;;4937679;29;20009;-81
2022/02/09 22:55:37;;;;;;;8.10;4.30;;;6.20;96.00;;;;;;4892440;29;20063;-81
2022/02/09 22:58:06;;;;;;;9.82;4.70;;;6.20;96.10;;;;;;4937970;29;20106;-81
2022/02/09 23:00:49;;;;;;;11.43;4.65;;;6.20;96.30;;;;;;4937942;29;20139;-81
2022/02/09 23:03:22;;;;;;;8.43;4.35;;;6.10;96.50;;;;;;4937566;29;20054;-82
2022/02/09 23:25:48;;;;;;;16.75;8.07;;;6.30;96.80;;;;;;4956894;29;20121;-82
